Time;durP1;ratioP1;P1;durP2;ratioP2;P2;SDS_P1;SDS_P2;PMS_P1;PMS_P2;Temp;Humidity;BMP_temperature;BMP_pressure;BME280_temperature;BME280_humidity;BME280_pressure;Samples;Min_cycle;Max_cycle;Signal;HPM_P1;HPM_P2
2023/01/28 00:07:08;;;;;;;1.08;0.50;;;1.10;99.90;;;;;;4992776;28;20121;-90
2023/01/28 00:09:47;;;;;;;2.15;0.88;;;1.60;99.90;;;;;;4979399;28;20057;-91
2023/01/28 00:13:19;;;;;;;1.17;0.77;;;1.20;99.90;;;;;;4964459;28;20046;-91
2023/01/28 00:16:16;;;;;;;2.38;1.55;;;1.50;99.90;;;;;;4989572;28;20555;-90
2023/01/28 00:18:42;;;;;;;1.10;0.70;;;1.50;99.90;;;;;;4998469;28;20049;-90
2023/01/28 00:21:11;;;;;;;1.23;0.73;;;1.50;99.90;;;;;;5003737;28;20139;-90
2023/01/28 00:24:03;;;;;;;2.00;0.60;;;2.50;99.90;;;;;;5019697;28;20049;-91
2023/01/28 00:29:53;;;;;;;1.52;1.25;;;1.50;99.90;;;;;;4937609;29;20047;-90
2023/01/28 00:32:27;;;;;;;1.05;0.98;;;1.90;99.90;;;;;;5029619;28;20462;-90
2023/01/28 00:35:29;;;;;;;1.80;0.82;;;2.00;99.90;;;;;;5040936;28;20051;-91
2023/01/28 00:38:24;;;;;;;;;;;;;;;;;;;;;
2023/01/28 00:41:14;;;;;;;1.35;0.30;;;1.40;99.90;;;;;;5045896;28;20546;-90
2023/01/28 00:43:44;;;;;;;1.45;0.88;;;1.60;99.90;;;;;;5020676;28;20490;-90
2023/01/28 00:46:16;;;;;;;1.17;0.88;;;2.10;99.90;;;;;;5035007;28;20053;-91
2023/01/28 00:48:45;;;;;;;0.55;0.55;;;0.40;99.90;;;;;;5011352;28;20056;-92
2023/01/28 00:51:15;;;;;;;2.15;0.60;;;1.80;99.90;;;;;;5024279;28;20049;-91
2023/01/28 00:53:43;;;;;;;1.38;0.85;;;0.80;99.90;;;;;;5035562;28;20518;-90
2023/01/28 00:59:23;;;;;;;2.67;1.38;;;1.50;99.90;;;;;;5052356;28;20048;-90
2023/01/28 01:01:51;;;;;;;1.75;1.00;;;1.40;99.90;;;;;;5035878;28;20509;-91
2023/01/28 01:04:35;;;;;;;;;;;;;;;;;;;;;
2023/01/28 01:11:05;;;;;;;3.00;0.52;;;1.40;99.90;;;;;;5025951;28;20129;-90
2023/01/28 01:17:21;;;;;;;0.55;0.30;;;1.30;99.90;;;;;;5052314;28;20044;-91
2023/01/28 01:20:10;;;;;;;1.23;0.82;;;1.30;99.90;;;;;;5019237;28;20053;-91
2023/01/28 01:22:38;;;;;;;2.58;0.55;;;1.40;99.90;;;;;;5035575;28;20102;-91
2023/01/28 01:25:14;;;;;;;0.50;0.50;;;1.30;99.90;;;;;;5036040;28;20044;-90
2023/01/28 01:28:33;;;;;;;;;;;2.50;99.90;;;;;;4992170;28;20101;-91
2023/01/28 01:34:28;;;;;;;1.85;0.50;;;1.30;99.90;;;;;;4972780;28;20152;-90
2023/01/28 01:36:53;;;;;;;0.40;0.40;;;1.40;99.90;;;;;;4925926;29;20106;-91
2023/01/28 01:39:50;;;;;;;1.17;0.60;;;1.30;99.90;;;;;;4924825;29;20490;-90
2023/01/28 01:46:00;;;;;;;0.85;0.63;;;1.30;99.90;;;;;;4998080;28;20451;-90
2023/01/28 02:00:07;;;;;;;1.02;0.43;;;2.30;99.90;;;;;;5016394;28;20056;-90
2023/01/28 02:06:24;;;;;;;;;;;1.30;99.90;;;;;;5016706;28;20049;-89
2023/01/28 02:08:54;;;;;;;3.10;0.43;;;1.30;99.90;;;;;;4998738;28;19922;-90
2023/01/28 02:18:28;;;;;;;0.50;0.50;;;1.30;99.90;;;;;;5009643;28;20096;-90
2023/01/28 02:21:31;;;;;;;0.40;0.40;;;1.30;99.90;;;;;;4999128;28;20420;-90
2023/01/28 02:28:13;;;;;;;1.75;0.80;;;1.30;99.90;;;;;;5015865;28;20068;-90
2023/01/28 02:31:03;;;;;;;1.73;0.35;;;0.40;99.90;;;;;;4982615;28;20081;-90
2023/01/28 02:37:14;;;;;;;0.93;0.93;;;1.40;99.90;;;;;;5035463;28;20044;-91
2023/01/28 02:40:05;;;;;;;;;;;;;;;;;;;;;
2023/01/28 02:43:35;;;;;;;0.88;0.47;;;1.30;99.90;;;;;;4974671;28;20078;-91
2023/01/28 02:57:46;;;;;;;2.13;0.68;;;1.30;99.90;;;;;;5035130;28;20487;-90
2023/01/28 03:00:21;;;;;;;1.90;0.45;;;1.30;99.90;;;;;;4998047;28;20077;-90
2023/01/28 03:03:15;;;;;;;2.00;0.20;;;1.30;99.90;;;;;;4941582;29;20066;-90
2023/01/28 03:09:29;;;;;;;1.40;0.77;;;1.30;99.90;;;;;;4954758;29;20063;-90
2023/01/28 03:38:17;;;;;;;1.92;0.50;;;1.30;99.90;;;;;;4957515;28;20046;-90
2023/01/28 03:47:27;;;;;;;0.80;0.68;;;0.40;99.90;;;;;;5003957;28;20040;-90
2023/01/28 03:49:55;;;;;;;0.20;0.20;;;0.60;99.90;;;;;;4998301;28;20480;-90
2023/01/28 03:55:53;;;;;;;0.75;0.40;;;1.30;99.90;;;;;;5016738;28;20066;-90
2023/01/28 03:58:45;;;;;;;1.23;0.47;;;2.30;99.90;;;;;;5000015;28;20515;-91
2023/01/28 04:05:14;;;;;;;1.65;0.65;;;1.20;99.90;;;;;;5033898;28;20043;-91
2023/01/28 04:07:54;;;;;;;;;;;;;;;;;;;;;
2023/01/28 04:14:35;;;;;;;2.00;0.22;;;1.30;99.90;;;;;;5033799;28;20421;-91
2023/01/28 04:17:09;;;;;;;0.73;0.50;;;1.30;99.90;;;;;;5000380;28;20538;-91
2023/01/28 04:20:23;;;;;;;0.30;0.30;;;0.60;99.90;;;;;;4992193;28;20178;-91
2023/01/28 04:26:40;;;;;;;1.02;0.60;;;1.20;99.90;;;;;;4992173;28;20121;-91
2023/01/28 04:32:52;;;;;;;1.08;0.43;;;1.20;99.90;;;;;;4992158;28;20097;-90
2023/01/28 04:35:57;;;;;;;0.45;0.17;;;1.40;99.90;;;;;;4960524;28;20058;-90
2023/01/28 04:38:28;;;;;;;0.73;0.32;;;1.20;99.90;;;;;;4995545;28;20045;-90
2023/01/28 04:41:09;;;;;;;1.75;0.60;;;1.80;99.90;;;;;;4979299;28;20107;-91
2023/01/28 04:43:47;;;;;;;;;;;;;;;;;;;;;
2023/01/28 04:46:16;;;;;;;1.85;0.85;;;1.10;99.90;;;;;;4980646;28;20066;-90
2023/01/28 04:48:56;;;;;;;1.15;0.60;;;1.10;99.90;;;;;;4979710;28;20495;-90
2023/01/28 04:51:21;;;;;;;0.60;0.40;;;2.10;99.90;;;;;;4963922;28;20058;-90
2023/01/28 04:58:08;;;;;;;;;;;1.00;99.90;;;;;;5013879;28;20496;-91
2023/01/28 05:04:56;;;;;;;0.20;0.20;;;1.10;99.90;;;;;;5013482;28;20048;-91
2023/01/28 05:08:02;;;;;;;0.60;0.38;;;1.10;99.90;;;;;;4995268;28;20080;-90
2023/01/28 05:11:13;;;;;;;1.83;0.65;;;1.10;99.90;;;;;;4984847;28;20053;-90
2023/01/28 05:17:37;;;;;;;0.13;0.13;;;1.00;99.90;;;;;;5017299;28;20040;-90
2023/01/28 05:24:22;;;;;;;1.98;0.35;;;1.10;99.90;;;;;;5017110;28;20061;-90
2023/01/28 05:30:34;;;;;;;1.13;0.45;;;1.00;99.90;;;;;;5017104;28;20120;-90
2023/01/28 05:36:50;;;;;;;0.70;0.32;;;1.00;99.90;;;;;;5016946;28;20072;-89
2023/01/28 06:08:24;;;;;;;2.08;0.50;;;0.90;99.90;;;;;;5036835;28;20603;-89
2023/01/28 06:11:00;;;;;;;1.37;1.13;;;0.90;99.90;;;;;;4968966;28;20069;-90
2023/01/28 06:13:29;;;;;;;3.28;0.40;;;0.90;99.90;;;;;;4987359;28;20403;-90
2023/01/28 06:15:55;;;;;;;1.13;0.60;;;0.90;99.90;;;;;;5002101;28;20056;-89
2023/01/28 06:18:33;;;;;;;1.83;0.80;;;0.80;99.90;;;;;;5002431;28;20116;-89
2023/01/28 06:21:01;;;;;;;2.30;0.65;;;1.00;99.90;;;;;;5002260;28;20431;-89
2023/01/28 06:23:55;;;;;;;1.33;0.88;;;0.90;99.90;;;;;;5002010;28;20045;-90
2023/01/28 06:29:09;;;;;;;;;;;0.90;99.90;;;;;;5018788;28;20164;-90
2023/01/28 06:31:57;;;;;;;1.50;0.65;;;1.60;99.90;;;;;;5002008;28;20351;-89
2023/01/28 06:34:35;;;;;;;;;;;;;;;;;;;;;
2023/01/28 06:45:11;;;;;;;0.95;0.60;;;0.90;99.90;;;;;;5035327;28;20049;-90
2023/01/28 06:47:54;;;;;;;0.52;0.52;;;1.00;99.90;;;;;;5003434;28;20054;-90
2023/01/28 06:50:28;;;;;;;0.08;0.08;;;2.10;99.90;;;;;;4985794;28;20045;-90
2023/01/28 06:56:55;;;;;;;1.23;0.43;;;0.60;99.90;;;;;;4997263;28;20492;-92
2023/01/28 06:59:58;;;;;;;0.68;0.65;;;1.00;99.90;;;;;;4980576;28;20049;-90
2023/01/28 07:02:30;;;;;;;0.75;0.50;;;0.90;99.90;;;;;;5007769;28;20089;-89
2023/01/28 07:04:58;;;;;;;1.25;0.55;;;1.00;99.90;;;;;;5017368;28;20092;-90
2023/01/28 07:07:34;;;;;;;1.90;0.73;;;1.50;99.90;;;;;;5001236;28;20041;-90
2023/01/28 07:10:09;;;;;;;1.77;0.82;;;2.10;99.90;;;;;;5001639;28;20058;-90
2023/01/28 07:12:43;;;;;;;1.58;0.60;;;0.90;99.90;;;;;;5001272;28;20049;-89
2023/01/28 07:15:17;;;;;;;1.65;0.80;;;0.90;99.90;;;;;;4982030;28;20054;-90
2023/01/28 07:17:43;;;;;;;1.90;0.52;;;1.30;99.90;;;;;;4984021;28;20056;-89
2023/01/28 07:20:14;;;;;;;1.52;0.82;;;0.90;99.90;;;;;;4998374;28;20042;-86
2023/01/28 07:22:41;;;;;;;0.75;0.50;;;1.90;99.90;;;;;;4999810;28;20045;-86
2023/01/28 07:25:11;;;;;;;1.55;0.73;;;0.90;99.90;;;;;;4999350;28;20041;-86
2023/01/28 07:27:37;;;;;;;0.35;0.30;;;0.90;99.90;;;;;;4999248;28;20128;-87
2023/01/28 07:30:05;;;;;;;1.13;1.03;;;0.90;99.90;;;;;;4998802;28;20124;-86
2023/01/28 07:32:33;;;;;;;2.20;0.68;;;0.90;99.90;;;;;;4999858;28;20122;-85
2023/01/28 07:34:59;;;;;;;0.85;0.50;;;0.90;99.90;;;;;;5011791;28;20046;-86
2023/01/28 07:37:25;;;;;;;1.17;0.23;;;0.80;99.90;;;;;;4989458;28;20046;-85
2023/01/28 07:39:51;;;;;;;2.13;1.03;;;1.60;99.90;;;;;;4982085;28;20087;-85
2023/01/28 07:42:17;;;;;;;2.22;1.02;;;2.00;99.90;;;;;;4998792;28;20049;-86
2023/01/28 07:44:42;;;;;;;1.20;0.53;;;2.10;99.90;;;;;;5015501;28;20384;-86
2023/01/28 07:47:09;;;;;;;2.07;0.97;;;0.80;99.90;;;;;;4999395;28;20408;-85
2023/01/28 07:49:42;;;;;;;0.43;0.40;;;0.80;99.90;;;;;;4998779;28;20057;-89
2023/01/28 07:52:13;;;;;;;1.58;0.68;;;1.90;99.90;;;;;;4998831;28;20057;-91
2023/01/28 07:54:49;;;;;;;3.75;0.93;;;0.70;99.90;;;;;;4970412;28;20046;-92
2023/01/28 07:57:23;;;;;;;3.53;1.00;;;1.20;99.90;;;;;;4947753;28;20046;-89
2023/01/28 07:59:51;;;;;;;1.35;0.60;;;1.90;99.90;;;;;;4985512;28;20052;-90
2023/01/28 08:02:25;;;;;;;1.20;0.52;;;1.00;99.90;;;;;;5015054;28;20048;-89
2023/01/28 08:05:01;;;;;;;0.77;0.50;;;0.60;99.90;;;;;;5014894;28;20562;-90
2023/01/28 08:07:36;;;;;;;0.77;0.70;;;1.70;99.90;;;;;;4995253;28;20108;-89
2023/01/28 08:10:21;;;;;;;1.67;1.10;;;0.40;99.90;;;;;;4980761;28;20487;-89
2023/01/28 08:13:03;;;;;;;1.33;0.63;;;0.50;99.90;;;;;;5015008;28;20056;-89
2023/01/28 08:15:31;;;;;;;2.90;0.45;;;1.60;99.90;;;;;;4999297;28;20407;-89
2023/01/28 08:18:13;;;;;;;1.90;0.70;;;1.80;99.90;;;;;;5031872;28;20495;-90
2023/01/28 08:20:46;;;;;;;1.08;0.50;;;0.90;99.90;;;;;;4980186;28;20411;-89
2023/01/28 08:23:37;;;;;;;;;;;;;;;;;;;;;
2023/01/28 08:26:04;;;;;;;1.45;0.63;;;0.60;99.90;;;;;;5034224;28;20075;-87
2023/01/28 08:28:32;;;;;;;1.07;0.60;;;0.70;99.90;;;;;;5018893;28;20048;-88
2023/01/28 08:31:01;;;;;;;1.98;0.50;;;1.50;99.90;;;;;;5014788;28;20045;-88
2023/01/28 08:33:27;;;;;;;2.28;0.88;;;1.10;99.90;;;;;;4999220;28;20407;-88
2023/01/28 08:35:56;;;;;;;0.67;0.53;;;0.80;99.90;;;;;;5014944;28;20053;-89
2023/01/28 08:38:42;;;;;;;;;;;;;;;;;;;;;
2023/01/28 08:41:27;;;;;;;;;;;;;;;;;;;;;
2023/01/28 08:44:05;;;;;;;0.80;0.40;;;1.10;99.90;;;;;;5011509;28;20049;-90
2023/01/28 08:46:35;;;;;;;1.13;1.00;;;1.20;99.90;;;;;;4983916;28;20053;-90
2023/01/28 08:49:06;;;;;;;0.73;0.40;;;1.00;99.90;;;;;;4997858;28;20052;-90
2023/01/28 08:51:55;;;;;;;1.75;0.50;;;2.70;99.90;;;;;;4984185;28;20461;-89
2023/01/28 08:54:21;;;;;;;;;;;2.40;99.90;;;;;;4979782;28;20045;-89
2023/01/28 08:56:53;;;;;;;2.72;0.90;;;1.80;99.90;;;;;;4978924;28;19971;-94
2023/01/28 08:59:24;;;;;;;1.27;0.35;;;1.80;99.90;;;;;;4996100;28;20053;-90
2023/01/28 09:01:52;;;;;;;0.60;0.60;;;1.70;99.90;;;;;;4998031;28;20091;-91
2023/01/28 09:04:24;;;;;;;1.02;0.95;;;1.90;99.90;;;;;;5031806;28;20479;-89
2023/01/28 09:07:00;;;;;;;0.63;0.52;;;2.60;99.90;;;;;;4998365;28;20081;-89
2023/01/28 09:09:26;;;;;;;2.00;0.52;;;2.00;99.90;;;;;;4995222;28;20042;-89
2023/01/28 09:12:00;;;;;;;1.10;0.47;;;3.30;99.90;;;;;;5011391;28;20064;-89
2023/01/28 09:14:29;;;;;;;1.25;0.90;;;2.20;99.90;;;;;;5050271;28;20488;-89
2023/01/28 09:17:03;;;;;;;0.68;0.60;;;2.10;99.90;;;;;;5034346;28;20095;-89
2023/01/28 09:19:32;;;;;;;0.10;0.10;;;2.40;99.90;;;;;;5035553;28;20044;-89
2023/01/28 09:22:05;;;;;;;0.70;0.60;;;2.30;99.90;;;;;;5035978;28;20045;-89
2023/01/28 09:24:44;;;;;;;0.68;0.50;;;1.40;99.90;;;;;;5034926;28;20499;-93
2023/01/28 09:27:22;;;;;;;;;;;;;;;;;;;;;
2023/01/28 09:29:53;;;;;;;1.20;1.08;;;1.70;99.90;;;;;;5049863;28;20373;-89
2023/01/28 09:32:31;;;;;;;;;;;;;;;;;;;;;
2023/01/28 09:35:00;;;;;;;0.35;0.32;;;2.50;99.90;;;;;;5049764;28;20037;-88
2023/01/28 09:37:34;;;;;;;1.10;0.68;;;2.50;99.90;;;;;;5031585;28;20041;-90
2023/01/28 09:40:50;;;;;;;;;;;;;;;;;;;;;
2023/01/28 09:43:44;;;;;;;;;;;;;;;;;;;;;
2023/01/28 09:46:17;;;;;;;1.35;0.70;;;2.70;99.90;;;;;;5048210;28;20045;-90
2023/01/28 09:49:00;;;;;;;0.77;0.32;;;2.90;99.90;;;;;;5013348;28;20108;-91
2023/01/28 09:51:47;;;;;;;0.13;0.10;;;2.80;99.90;;;;;;5048415;28;20037;-89
2023/01/28 09:54:34;;;;;;;0.75;0.30;;;2.90;99.90;;;;;;5035683;28;20306;-89
2023/01/28 09:57:09;;;;;;;1.17;0.38;;;3.00;99.90;;;;;;5037023;28;20132;-89
2023/01/28 09:59:38;;;;;;;0.43;0.17;;;3.20;99.90;;;;;;5035189;28;20089;-90
2023/01/28 10:02:22;;;;;;;0.45;0.45;;;3.50;99.90;;;;;;5023594;28;20048;-89
2023/01/28 10:08:41;;;;;;;;;;;;;;;;;;;;;
2023/01/28 10:11:27;;;;;;;2.97;0.60;;;4.10;99.90;;;;;;5050468;28;20121;-93
2023/01/28 10:14:08;;;;;;;1.23;1.00;;;4.10;99.90;;;;;;5050143;28;20053;-96
2023/01/28 10:17:09;;;;;;;;;;;;;;;;;;;;;
2023/01/28 10:20:00;;;;;;;2.30;0.93;;;5.10;99.90;;;;;;5050754;28;20072;-93
2023/01/28 10:22:44;;;;;;;1.20;0.90;;;5.20;99.90;;;;;;5033538;28;20415;-94
2023/01/28 10:28:51;;;;;;;0.30;0.30;;;5.40;99.90;;;;;;5053990;28;20041;-94
2023/01/28 10:31:42;;;;;;;;;;;;;;;;;;;;;
2023/01/28 10:34:21;;;;;;;0.88;0.30;;;5.90;99.90;;;;;;5040253;28;20052;-94
2023/01/28 10:36:58;;;;;;;;;;;;;;;;;;;;;
2023/01/28 10:40:07;;;;;;;0.70;0.17;;;5.80;99.90;;;;;;5056327;28;20060;-94
2023/01/28 10:43:00;;;;;;;0.20;0.20;;;5.50;99.90;;;;;;5033837;28;20048;-94
2023/01/28 10:45:57;;;;;;;;;;;;;;;;;;;;;
2023/01/28 10:48:27;;;;;;;0.82;0.63;;;4.70;99.90;;;;;;5047198;28;20048;-94
2023/01/28 10:51:11;;;;;;;;;;;;;;;;;;;;;
2023/01/28 10:53:50;;;;;;;0.73;0.70;;;4.60;99.90;;;;;;5051288;28;20041;-95
2023/01/28 10:56:27;;;;;;;0.30;0.30;;;5.10;99.90;;;;;;5030765;28;20095;-94
2023/01/28 10:59:13;;;;;;;2.10;0.45;;;5.20;99.90;;;;;;5030446;28;20064;-96
2023/01/28 11:01:56;;;;;;;0.88;0.30;;;5.50;99.90;;;;;;5036427;28;20043;-95
2023/01/28 11:04:50;;;;;;;;;;;;;;;;;;;;;
2023/01/28 11:07:37;;;;;;;0.63;0.50;;;6.20;99.90;;;;;;5027547;28;20514;-96
2023/01/28 11:10:32;;;;;;;1.48;0.50;;;6.60;99.90;;;;;;5034541;28;20041;-96
2023/01/28 11:13:57;;;;;;;;;;;;;;;;;;;;;
2023/01/28 11:16:48;;;;;;;0.40;0.40;;;6.90;99.90;;;;;;5001740;28;20049;-93
2023/01/28 11:19:28;;;;;;;0.55;0.50;;;6.50;99.90;;;;;;4982395;28;20408;-94
2023/01/28 11:22:11;;;;;;;1.50;0.75;;;6.70;99.90;;;;;;4982165;28;20045;-95
2023/01/28 11:24:37;;;;;;;1.35;0.85;;;6.40;99.90;;;;;;4981637;28;20069;-96
2023/01/28 11:27:14;;;;;;;1.00;0.60;;;7.70;99.90;;;;;;4982072;28;20473;-96
2023/01/28 11:30:03;;;;;;;1.15;0.35;;;7.80;99.90;;;;;;4984620;28;20062;-96
2023/01/28 11:32:45;;;;;;;;;;;;;;;;;;;;;
2023/01/28 11:35:45;;;;;;;;;;;;;;;;;;;;;
2023/01/28 11:42:13;;;;;;;1.75;0.60;;;7.80;99.90;;;;;;5035754;28;20068;-95
2023/01/28 11:45:04;;;;;;;1.85;0.55;;;7.30;99.90;;;;;;5001651;28;20064;-96
2023/01/28 11:48:02;;;;;;;0.60;0.52;;;6.20;99.90;;;;;;4986455;28;20132;-96
2023/01/28 11:51:02;;;;;;;0.63;0.50;;;6.70;99.90;;;;;;4997681;28;20045;-95
2023/01/28 11:54:01;;;;;;;0.73;0.52;;;6.60;99.90;;;;;;5000206;28;20128;-93
2023/01/28 11:56:54;;;;;;;0.90;0.60;;;6.40;99.90;;;;;;5000078;28;20056;-93
2023/01/28 11:59:40;;;;;;;0.70;0.40;;;5.60;99.90;;;;;;5016718;28;20048;-93
2023/01/28 12:02:25;;;;;;;1.33;0.30;;;6.10;99.90;;;;;;5000786;28;20095;-94
2023/01/28 12:05:26;;;;;;;;;;;5.80;99.90;;;;;;5001214;28;20052;-94
2023/01/28 12:08:36;;;;;;;1.27;1.08;;;6.20;99.90;;;;;;4937996;29;20009;-93
2023/01/28 12:11:20;;;;;;;0.63;0.45;;;5.30;99.90;;;;;;4955031;28;20053;-92
2023/01/28 12:14:27;;;;;;;1.58;0.40;;;6.00;99.90;;;;;;5039031;28;20049;-96
2023/01/28 12:17:38;;;;;;;1.40;0.63;;;6.40;99.90;;;;;;5039335;28;20060;-95
2023/01/28 12:20:12;;;;;;;1.17;0.50;;;5.90;99.90;;;;;;5031926;28;20403;-91
2023/01/28 12:22:51;;;;;;;0.50;0.45;;;6.70;99.90;;;;;;5015487;28;20048;-93
2023/01/28 12:26:15;;;;;;;0.57;0.40;;;5.80;99.90;;;;;;5033457;28;20052;-95
2023/01/28 12:29:40;;;;;;;;;;;;;;;;;;;;;
2023/01/28 12:32:42;;;;;;;1.33;0.70;;;5.10;99.90;;;;;;4987440;28;20165;-94
2023/01/28 12:35:31;;;;;;;0.50;0.50;;;5.60;99.90;;;;;;5054931;28;20049;-96
2023/01/28 12:41:39;;;;;;;1.00;0.50;;;5.40;99.90;;;;;;4988770;28;20548;-96
2023/01/28 12:44:43;;;;;;;;;;;;;;;;;;;;;
2023/01/28 12:47:37;;;;;;;1.20;0.50;;;5.30;99.90;;;;;;5033657;28;20061;-96
2023/01/28 12:50:16;;;;;;;1.23;0.35;;;5.60;99.90;;;;;;5020610;28;20053;-96
2023/01/28 12:53:36;;;;;;;1.25;0.65;;;6.00;99.90;;;;;;5039439;28;20041;-96
2023/01/28 12:56:35;;;;;;;;;;;;;;;;;;;;;
2023/01/28 12:59:26;;;;;;;0.90;0.80;;;5.90;99.90;;;;;;5051556;28;20047;-93
2023/01/28 13:02:18;;;;;;;0.45;0.38;;;6.80;99.90;;;;;;5038686;28;20052;-93
2023/01/28 13:05:04;;;;;;;1.65;0.77;;;6.80;99.90;;;;;;5050028;28;20052;-94
2023/01/28 13:07:54;;;;;;;0.30;0.30;;;6.80;99.90;;;;;;5033934;28;20077;-92
2023/01/28 13:10:36;;;;;;;0.57;0.35;;;7.00;99.90;;;;;;5030383;28;20044;-93
2023/01/28 13:13:05;;;;;;;0.70;0.70;;;7.30;99.90;;;;;;5029065;28;20076;-93
2023/01/28 13:15:46;;;;;;;0.43;0.35;;;7.50;99.90;;;;;;5030682;28;20075;-92
2023/01/28 13:18:49;;;;;;;0.70;0.52;;;7.70;99.90;;;;;;5030289;28;20132;-93
2023/01/28 13:21:34;;;;;;;0.30;0.30;;;7.60;99.90;;;;;;5039885;28;20553;-93
2023/01/28 13:27:28;;;;;;;0.55;0.47;;;7.50;99.90;;;;;;5038301;28;20037;-93
2023/01/28 13:30:25;;;;;;;0.25;0.22;;;6.80;99.90;;;;;;5032869;28;20060;-93
2023/01/28 13:33:21;;;;;;;1.35;0.98;;;6.60;99.90;;;;;;5040311;28;20166;-96
2023/01/28 13:35:56;;;;;;;1.10;0.65;;;7.50;99.90;;;;;;5051136;28;20191;-92
2023/01/28 13:38:28;;;;;;;0.50;0.50;;;7.80;99.90;;;;;;5054209;28;20077;-92
2023/01/28 13:41:05;;;;;;;0.63;0.63;;;7.20;99.90;;;;;;5017012;28;20040;-94
2023/01/28 13:43:48;;;;;;;2.17;0.90;;;7.70;99.90;;;;;;5055388;28;20160;-93
2023/01/28 13:46:39;;;;;;;;;;;;;;;;;;;;;
2023/01/28 13:49:31;;;;;;;1.05;0.98;;;8.10;99.90;;;;;;5054134;28;20132;-92
2023/01/28 13:52:17;;;;;;;1.80;0.88;;;8.10;99.90;;;;;;5054174;28;20049;-91
2023/01/28 13:55:15;;;;;;;0.55;0.50;;;8.10;99.90;;;;;;5051120;28;20040;-92
2023/01/28 13:58:07;;;;;;;0.52;0.52;;;8.40;99.90;;;;;;5050519;28;20049;-92
2023/01/28 14:01:11;;;;;;;1.45;0.68;;;8.40;99.90;;;;;;5032214;28;20056;-92
2023/01/28 14:04:03;;;;;;;0.70;0.50;;;8.30;99.90;;;;;;5048654;28;20053;-94
2023/01/28 14:06:36;;;;;;;1.55;0.80;;;8.00;99.90;;;;;;5042477;28;20051;-91
2023/01/28 14:09:25;;;;;;;1.05;0.68;;;7.80;99.90;;;;;;5025666;28;20102;-92
2023/01/28 14:12:11;;;;;;;0.85;0.73;;;7.60;99.90;;;;;;5028796;28;20482;-93
2023/01/28 14:14:59;;;;;;;1.75;0.95;;;7.30;99.90;;;;;;5027417;28;20053;-93
2023/01/28 14:18:23;;;;;;;2.05;0.55;;;7.10;99.90;;;;;;5038857;28;20048;-92
2023/01/28 14:21:00;;;;;;;;;;;;;;;;;;;;;
2023/01/28 14:23:31;;;;;;;;;;;7.40;99.90;;;;;;4961804;28;20119;-92
2023/01/28 14:26:59;;;;;;;1.63;0.55;;;6.50;99.90;;;;;;5040179;28;19942;-92
2023/01/28 14:30:11;;;;;;;1.08;0.47;;;6.30;99.90;;;;;;5039815;28;20036;-93
2023/01/28 14:32:56;;;;;;;0.57;0.55;;;5.70;99.90;;;;;;4961550;28;20051;-93
2023/01/28 14:35:31;;;;;;;0.85;0.40;;;5.30;99.90;;;;;;5044266;28;20139;-89
2023/01/28 14:38:07;;;;;;;1.90;0.50;;;6.10;99.90;;;;;;5025345;28;20041;-91
2023/01/28 14:40:40;;;;;;;1.20;0.30;;;6.00;99.90;;;;;;5022818;28;20049;-92
2023/01/28 14:43:20;;;;;;;0.28;0.28;;;5.90;99.90;;;;;;5033271;28;20432;-90
2023/01/28 14:46:23;;;;;;;0.32;0.32;;;5.80;99.90;;;;;;5021889;28;20048;-91
2023/01/28 14:49:23;;;;;;;0.30;0.30;;;5.70;99.90;;;;;;5046909;28;20067;-94
2023/01/28 14:52:03;;;;;;;1.52;0.60;;;5.00;99.90;;;;;;5022214;28;20049;-92
2023/01/28 14:55:13;;;;;;;0.60;0.45;;;5.50;99.90;;;;;;5029668;28;20045;-92
2023/01/28 14:57:51;;;;;;;0.82;0.40;;;5.50;99.90;;;;;;5036530;28;20045;-93
2023/01/28 15:00:26;;;;;;;1.33;0.85;;;5.50;99.90;;;;;;5025603;28;20123;-91
2023/01/28 15:02:52;;;;;;;0.25;0.25;;;5.40;99.90;;;;;;5023068;28;20080;-91
2023/01/28 15:05:24;;;;;;;1.00;0.63;;;4.90;99.90;;;;;;5024044;28;20129;-91
2023/01/28 15:07:50;;;;;;;1.08;0.70;;;5.30;99.90;;;;;;5041255;28;20055;-91
2023/01/28 15:10:22;;;;;;;0.50;0.32;;;5.30;99.90;;;;;;5018274;28;20087;-92
2023/01/28 15:13:12;;;;;;;0.73;0.60;;;5.20;99.90;;;;;;5032841;28;20052;-91
2023/01/28 15:15:49;;;;;;;0.40;0.30;;;5.20;99.90;;;;;;5035382;28;20049;-95
2023/01/28 15:18:28;;;;;;;;;;;;;;;;;;;;;
2023/01/28 15:21:00;;;;;;;1.13;0.38;;;5.10;99.90;;;;;;5047085;28;20060;-95
2023/01/28 15:23:37;;;;;;;0.70;0.57;;;4.90;99.90;;;;;;5036575;28;20047;-96
2023/01/28 15:26:21;;;;;;;0.65;0.40;;;5.10;99.90;;;;;;5035537;28;20480;-93
2023/01/28 15:28:51;;;;;;;1.67;0.63;;;5.10;99.90;;;;;;5034667;28;20475;-91
2023/01/28 15:31:44;;;;;;;;;;;;;;;;;;;;;
2023/01/28 15:34:44;;;;;;;0.82;0.60;;;5.10;99.90;;;;;;5051897;28;20045;-93
2023/01/28 15:37:15;;;;;;;1.00;0.98;;;5.10;99.90;;;;;;5015931;28;20052;-94
2023/01/28 15:39:56;;;;;;;;;;;;;;;;;;;;;
2023/01/28 15:42:30;;;;;;;0.50;0.50;;;5.00;99.90;;;;;;5058871;28;20045;-96
2023/01/28 15:44:59;;;;;;;0.60;0.30;;;5.00;99.90;;;;;;5024174;28;20033;-96
2023/01/28 15:47:32;;;;;;;1.15;0.75;;;5.10;99.90;;;;;;5035144;28;20131;-94
2023/01/28 15:50:06;;;;;;;2.38;0.45;;;5.00;99.90;;;;;;5035203;28;20525;-94
2023/01/28 15:52:44;;;;;;;0.13;0.13;;;5.00;99.90;;;;;;5037933;28;20071;-96
2023/01/28 15:55:50;;;;;;;2.40;0.85;;;5.00;99.90;;;;;;5035662;28;20076;-96
2023/01/28 15:59:01;;;;;;;;;;;;;;;;;;;;;
2023/01/28 16:02:04;;;;;;;1.38;0.30;;;4.70;99.90;;;;;;5028870;28;20070;-93
2023/01/28 16:04:32;;;;;;;0.40;0.30;;;4.70;99.90;;;;;;5033324;28;20052;-93
2023/01/28 16:07:28;;;;;;;0.60;0.60;;;4.50;99.90;;;;;;5046894;28;20040;-93
2023/01/28 16:10:15;;;;;;;;;;;;;;;;;;;;;
2023/01/28 16:12:50;;;;;;;0.93;0.40;;;4.70;99.90;;;;;;5048524;28;20052;-92
2023/01/28 16:15:29;;;;;;;0.32;0.32;;;4.00;99.90;;;;;;5039181;28;20091;-92
2023/01/28 16:18:02;;;;;;;0.30;0.30;;;4.60;99.90;;;;;;5068252;28;20052;-92
2023/01/28 16:20:57;;;;;;;1.05;0.47;;;3.60;99.90;;;;;;5048234;28;20051;-96
2023/01/28 16:23:42;;;;;;;;;;;;;;;;;;;;;
2023/01/28 16:26:32;;;;;;;0.22;0.20;;;4.70;99.90;;;;;;5059425;28;20479;-95
2023/01/28 16:29:12;;;;;;;0.90;0.32;;;4.60;99.90;;;;;;5055159;28;20608;-92
2023/01/28 16:31:48;;;;;;;0.57;0.43;;;4.50;99.90;;;;;;5043868;28;20510;-94
2023/01/28 16:34:29;;;;;;;0.60;0.45;;;4.40;99.90;;;;;;4999887;28;20128;-93
2023/01/28 16:36:58;;;;;;;1.00;0.88;;;4.30;99.90;;;;;;5052388;28;20044;-96
2023/01/28 16:39:30;;;;;;;1.15;0.40;;;4.40;99.90;;;;;;5032902;28;20043;-96
2023/01/28 16:45:26;;;;;;;0.20;0.20;;;4.40;99.90;;;;;;5038047;28;20041;-96
2023/01/28 16:51:50;;;;;;;0.30;0.20;;;4.00;99.90;;;;;;5047522;28;20048;-95
2023/01/28 16:54:44;;;;;;;0.52;0.30;;;4.20;99.90;;;;;;5021395;28;20056;-95
2023/01/28 16:57:25;;;;;;;0.52;0.15;;;4.30;99.90;;;;;;5036420;28;20117;-94
2023/01/28 17:00:31;;;;;;;;;;;;;;;;;;;;;
2023/01/28 17:03:06;;;;;;;0.98;0.40;;;4.40;99.90;;;;;;5043803;28;20115;-95
2023/01/28 17:05:52;;;;;;;0.55;0.52;;;5.30;99.90;;;;;;5040121;28;20041;-95
2023/01/28 17:08:39;;;;;;;0.70;0.70;;;3.40;99.90;;;;;;5041458;28;20503;-96
2023/01/28 17:11:07;;;;;;;0.17;0.17;;;4.20;99.90;;;;;;5007949;28;20048;-96
2023/01/28 17:13:36;;;;;;;0.75;0.75;;;4.10;99.90;;;;;;5013727;28;20060;-96
2023/01/28 17:16:15;;;;;;;;;;;;;;;;;;;;;
2023/01/28 17:18:54;;;;;;;1.10;1.00;;;3.80;99.90;;;;;;5100819;23;20043;-94
2023/01/28 17:21:31;;;;;;;0.20;0.20;;;4.10;99.90;;;;;;4957906;29;20078;-95
2023/01/28 17:24:46;;;;;;;;;;;;;;;;;;;;;
2023/01/28 17:27:59;;;;;;;1.08;0.82;;;5.20;99.90;;;;;;4928481;29;20082;-93
2023/01/28 17:30:35;;;;;;;1.25;0.52;;;3.10;99.90;;;;;;4952485;29;20055;-96
2023/01/28 17:33:06;;;;;;;4.25;0.52;;;4.00;99.90;;;;;;4930878;29;20048;-96
2023/01/28 17:35:58;;;;;;;0.40;0.40;;;4.00;99.90;;;;;;4925821;29;20508;-96
2023/01/28 17:38:32;;;;;;;0.30;0.20;;;4.80;99.90;;;;;;4941752;29;20055;-96
2023/01/28 17:41:40;;;;;;;0.77;0.45;;;4.20;99.90;;;;;;4901973;29;20054;-96
2023/01/28 17:44:48;;;;;;;;;;;;;;;;;;;;;
2023/01/28 17:47:47;;;;;;;1.38;0.43;;;4.70;99.90;;;;;;4931820;29;20047;-96
2023/01/28 17:50:14;;;;;;;0.70;0.70;;;5.00;99.90;;;;;;4904355;29;20055;-96
2023/01/28 17:52:55;;;;;;;;;;;;;;;;;;;;;
2023/01/28 17:59:04;;;;;;;1.42;0.30;;;3.20;99.90;;;;;;5161415;23;20050;-94
2023/01/28 18:05:16;;;;;;;;;;;;;;;;;;;;;
2023/01/28 18:07:49;;;;;;;0.95;0.88;;;3.90;99.90;;;;;;4994994;28;20062;-95
2023/01/28 18:10:35;;;;;;;0.20;0.20;;;4.00;99.90;;;;;;4983656;28;20117;-96
2023/01/28 18:13:22;;;;;;;1.48;0.40;;;3.90;99.90;;;;;;4978868;28;20048;-95
2023/01/28 18:15:54;;;;;;;1.58;0.30;;;4.70;99.90;;;;;;4982955;28;20077;-95
2023/01/28 18:18:28;;;;;;;1.10;0.40;;;3.80;99.90;;;;;;4985409;28;20081;-94
2023/01/28 18:21:40;;;;;;;0.20;0.20;;;4.80;99.90;;;;;;4966740;28;20042;-94
2023/01/28 18:24:24;;;;;;;;;;;;;;;;;;;;;
2023/01/28 18:34:03;;;;;;;2.00;0.63;;;3.20;99.90;;;;;;4977202;28;20078;-96
2023/01/28 18:36:47;;;;;;;0.43;0.43;;;3.70;99.90;;;;;;4976834;28;20513;-95
2023/01/28 18:39:42;;;;;;;0.40;0.30;;;3.60;99.90;;;;;;4975610;28;20038;-95
2023/01/28 18:45:59;;;;;;;;;;;;;;;;;;;;;
2023/01/28 18:48:55;;;;;;;;;;;;;;;;;;;;;
2023/01/28 18:51:42;;;;;;;;;;;;;;;;;;;;;
2023/01/28 18:54:23;;;;;;;1.85;0.50;;;3.60;99.90;;;;;;4985457;28;20050;-96
2023/01/28 18:57:20;;;;;;;0.60;0.60;;;3.60;99.90;;;;;;4982214;28;20057;-96
2023/01/28 19:00:20;;;;;;;;;;;;;;;;;;;;;
2023/01/28 19:07:16;;;;;;;;;;;;;;;;;;;;;
2023/01/28 19:10:05;;;;;;;0.93;0.82;;;3.50;99.90;;;;;;4996154;28;20087;-96
2023/01/28 19:13:04;;;;;;;0.55;0.30;;;3.50;99.90;;;;;;4989055;23;20122;-94